createdAt,value
2019-01-12T00:01:06.083Z,22.50
2019-01-12T00:03:36.466Z,18.13
2019-01-12T00:06:09.412Z,18.87
2019-01-12T00:08:39.923Z,14.23
2019-01-12T00:11:10.568Z,18.67
2019-01-12T00:13:41.850Z,20.13
2019-01-12T00:16:12.200Z,16.80
2019-01-12T00:18:42.709Z,17.73
2019-01-12T00:21:14.616Z,16.53
2019-01-12T00:23:44.966Z,14.77
2019-01-12T00:26:18.647Z,19.70
2019-01-12T00:28:49.034Z,16.97
2019-01-12T00:31:19.514Z,17.67
2019-01-12T00:33:49.895Z,12.93
2019-01-12T00:36:20.461Z,14.10
2019-01-12T00:38:52.895Z,15.57
2019-01-12T00:41:24.435Z,15.13
2019-01-12T00:43:54.881Z,13.47
2019-01-12T00:46:25.364Z,17.17
2019-01-12T00:48:55.881Z,15.77
2019-01-12T00:51:26.280Z,14.43
2019-01-12T00:53:56.585Z,14.27
2019-01-12T00:56:27.020Z,19.03
2019-01-12T00:58:57.500Z,14.20
2019-01-12T01:01:35.188Z,16.63
2019-01-12T01:04:05.778Z,15.80
2019-01-12T01:06:39.286Z,17.37
2019-01-12T01:09:12.079Z,18.90
2019-01-12T01:11:45.035Z,15.87
2019-01-12T01:14:15.474Z,17.67
2019-01-12T01:16:45.854Z,15.33
2019-01-12T01:19:19.928Z,15.30
2019-01-12T01:21:50.746Z,15.43
2019-01-12T01:24:21.175Z,16.73
2019-01-12T01:26:51.552Z,16.10
2019-01-12T01:29:24.056Z,18.07
2019-01-12T01:31:57.308Z,17.80
2019-01-12T01:34:28.004Z,15.33
2019-01-12T01:36:58.355Z,16.30
2019-01-12T01:39:29.063Z,17.10
2019-01-12T01:42:04.459Z,15.60
2019-01-12T01:44:34.871Z,18.30
2019-01-12T01:47:05.461Z,17.37
2019-01-12T01:49:35.843Z,15.77
2019-01-12T01:52:06.753Z,17.27
2019-01-12T01:54:45.102Z,15.77
2019-01-12T01:57:16.996Z,14.73
2019-01-12T01:59:47.301Z,15.87
2019-01-12T02:02:17.652Z,14.90
2019-01-12T02:04:48.060Z,12.83
2019-01-12T02:07:18.458Z,15.57
2019-01-12T02:09:48.871Z,13.57
2019-01-12T02:12:19.300Z,14.73
2019-01-12T02:14:49.789Z,14.93
2019-01-12T02:17:20.146Z,15.53
2019-01-12T02:19:50.903Z,15.27
2019-01-12T02:22:21.343Z,13.70
2019-01-12T02:24:51.802Z,14.07
2019-01-12T02:27:25.362Z,12.23
2019-01-12T02:29:56.020Z,14.37
2019-01-12T02:32:26.460Z,11.93
2019-01-12T02:34:56.977Z,11.93
2019-01-12T02:37:29.816Z,13.23
2019-01-12T02:40:00.631Z,12.90
2019-01-12T02:42:32.196Z,13.93
2019-01-12T02:45:02.658Z,12.47
2019-01-12T02:47:33.210Z,14.33
2019-01-12T02:50:04.258Z,11.77
2019-01-12T02:52:34.779Z,14.43
2019-01-12T02:55:08.912Z,12.53
2019-01-12T02:57:38.802Z,14.87
2019-01-12T03:00:12.966Z,15.37
2019-01-12T03:02:43.434Z,14.37
2019-01-12T03:05:14.180Z,15.30
2019-01-12T03:07:44.602Z,20.77
2019-01-12T03:10:16.955Z,23.03
2019-01-12T03:12:47.650Z,18.53
2019-01-12T03:15:18.832Z,20.57
2019-01-12T03:17:49.181Z,20.77
2019-01-12T03:20:19.710Z,18.80
2019-01-12T03:22:50.131Z,22.90
2019-01-12T03:25:20.573Z,18.53
2019-01-12T03:27:50.999Z,17.17
2019-01-12T03:30:21.439Z,17.37
2019-01-12T03:32:51.841Z,16.20
2019-01-12T03:35:23.077Z,17.17
2019-01-12T03:37:53.454Z,17.60
2019-01-12T03:40:23.838Z,16.10
2019-01-12T03:42:54.273Z,17.13
2019-01-12T03:45:24.684Z,18.20
2019-01-12T03:47:55.130Z,14.93
2019-01-12T03:50:25.483Z,18.47
2019-01-12T03:52:56.114Z,16.67
2019-01-12T03:55:26.518Z,18.20
2019-01-12T03:57:56.940Z,20.83
2019-01-12T04:00:27.349Z,16.40
2019-01-12T04:02:57.726Z,17.00
2019-01-12T04:05:28.141Z,16.50
2019-01-12T04:07:58.490Z,17.17
2019-01-12T04:10:32.066Z,17.60
2019-01-12T04:13:02.445Z,17.67
2019-01-12T04:15:33.825Z,16.83
2019-01-12T04:18:04.241Z,18.83
2019-01-12T04:20:34.671Z,19.63
2019-01-12T04:23:05.055Z,19.70
2019-01-12T04:25:35.579Z,25.70
2019-01-12T04:28:05.917Z,21.73
2019-01-12T04:30:36.349Z,17.87
2019-01-12T04:33:06.950Z,19.07
2019-01-12T04:35:37.369Z,19.87
2019-01-12T04:38:07.801Z,22.50
2019-01-12T04:40:38.476Z,19.83
2019-01-12T04:43:08.833Z,17.93
2019-01-12T04:45:39.465Z,19.10
2019-01-12T04:48:09.793Z,21.33
2019-01-12T04:50:42.163Z,17.97
2019-01-12T04:53:27.639Z,18.13
2019-01-12T04:55:58.018Z,20.57
2019-01-12T04:58:28.421Z,23.87
2019-01-12T05:00:59.101Z,21.07
2019-01-12T05:03:29.966Z,16.70
2019-01-12T05:06:07.420Z,16.80
2019-01-12T05:08:37.857Z,17.50
2019-01-12T05:11:09.905Z,16.70
2019-01-12T05:13:41.173Z,19.87
2019-01-12T05:16:11.865Z,18.40
2019-01-12T05:18:42.284Z,16.70
2019-01-12T05:21:12.700Z,15.40
2019-01-12T05:23:43.321Z,13.80
2019-01-12T05:26:13.699Z,16.43
2019-01-12T05:28:44.085Z,17.97
2019-01-12T05:31:14.512Z,16.33
2019-01-12T05:33:44.941Z,20.70
2019-01-12T05:36:16.579Z,18.33
2019-01-12T05:38:47.112Z,20.43
2019-01-12T05:41:17.798Z,22.23
2019-01-12T05:43:55.525Z,17.00
2019-01-12T05:46:25.898Z,15.77
2019-01-12T05:48:56.252Z,19.37
2019-01-12T05:51:26.615Z,16.17
2019-01-12T05:53:57.012Z,14.67
2019-01-12T05:56:27.403Z,17.90
2019-01-12T05:58:57.827Z,15.13
2019-01-12T06:01:30.232Z,17.47
2019-01-12T06:04:00.754Z,13.93
2019-01-12T06:06:31.227Z,14.60
2019-01-12T06:09:01.620Z,15.00
2019-01-12T06:11:32.013Z,15.87
2019-01-12T06:14:02.353Z,16.93
2019-01-12T06:16:32.732Z,15.67
2019-01-12T06:19:03.430Z,15.10
2019-01-12T06:21:34.290Z,16.20
2019-01-12T06:24:06.521Z,17.00
2019-01-12T06:26:36.896Z,20.50
2019-01-12T06:29:07.275Z,16.00
2019-01-12T06:31:37.782Z,14.07
2019-01-12T06:34:08.336Z,16.03
2019-01-12T06:36:38.694Z,21.60
2019-01-12T06:39:10.146Z,14.27
2019-01-12T06:41:40.673Z,12.60
2019-01-12T06:44:11.475Z,11.90
2019-01-12T06:46:41.859Z,13.47
2019-01-12T06:49:12.209Z,12.23
2019-01-12T06:51:42.587Z,14.20
2019-01-12T06:54:13.061Z,15.67
2019-01-12T06:56:43.395Z,14.03
2019-01-12T06:59:14.090Z,16.60
2019-01-12T07:01:44.536Z,15.63
2019-01-12T07:04:15.014Z,17.00
2019-01-12T07:06:45.403Z,17.17
2019-01-12T07:09:15.828Z,18.93
2019-01-12T07:11:46.368Z,16.93
2019-01-12T07:14:16.675Z,16.70
2019-01-12T07:16:47.092Z,15.93
2019-01-12T07:19:17.458Z,17.23
2019-01-12T07:21:47.915Z,18.20
2019-01-12T07:24:18.356Z,19.20
2019-01-12T07:26:48.778Z,17.40
2019-01-12T07:29:19.948Z,17.10
2019-01-12T07:31:50.397Z,17.43
2019-01-12T07:34:20.831Z,17.70
2019-01-12T07:36:51.304Z,21.67
2019-01-12T07:39:21.711Z,17.00
2019-01-12T07:41:52.602Z,18.50
2019-01-12T07:44:25.147Z,21.30
2019-01-12T07:46:55.646Z,19.73
2019-01-12T07:49:27.041Z,19.03
2019-01-12T07:51:57.638Z,17.73
2019-01-12T07:54:27.934Z,21.73
2019-01-12T07:56:58.411Z,20.30
2019-01-12T07:59:28.756Z,20.73
2019-01-12T08:01:59.206Z,22.50
2019-01-12T08:04:29.875Z,24.77
2019-01-12T08:07:00.471Z,25.47
2019-01-12T08:09:30.903Z,23.23
2019-01-12T08:12:03.358Z,24.13
2019-01-12T08:14:34.302Z,29.23
2019-01-12T08:17:09.870Z,25.93
2019-01-12T08:19:40.404Z,24.77
2019-01-12T08:22:10.851Z,23.57
2019-01-12T08:24:41.374Z,25.73
2019-01-12T08:27:11.865Z,22.80
2019-01-12T08:29:43.363Z,22.27
2019-01-12T08:32:15.180Z,22.90
2019-01-12T08:34:45.542Z,25.53
2019-01-12T08:37:17.088Z,24.07
2019-01-12T08:39:47.542Z,22.90
2019-01-12T08:42:17.910Z,27.70
2019-01-12T08:44:48.279Z,25.60
2019-01-12T08:47:18.908Z,27.50
2019-01-12T08:49:49.234Z,28.13
2019-01-12T08:52:19.667Z,27.27
2019-01-12T08:54:50.043Z,36.97
2019-01-12T08:57:20.467Z,28.83
2019-01-12T08:59:50.923Z,27.80
2019-01-12T09:02:21.470Z,28.53
2019-01-12T09:04:51.873Z,29.17
2019-01-12T09:07:24.533Z,26.53
2019-01-12T09:09:55.209Z,28.87
2019-01-12T09:12:25.646Z,27.80
2019-01-12T09:14:56.366Z,26.23
2019-01-12T09:17:26.837Z,28.23
2019-01-12T09:19:57.180Z,32.87
2019-01-12T09:22:27.646Z,25.67
2019-01-12T09:24:58.203Z,26.30
2019-01-12T09:27:28.959Z,24.97
2019-01-12T09:29:59.750Z,25.30
2019-01-12T09:32:32.413Z,27.40
2019-01-12T09:35:02.767Z,27.67
2019-01-12T09:37:33.687Z,25.90
2019-01-12T09:40:04.305Z,25.87
2019-01-12T09:42:34.741Z,26.60
2019-01-12T09:45:06.197Z,32.93
2019-01-12T09:47:36.685Z,28.57
2019-01-12T09:50:09.123Z,25.10
2019-01-12T09:52:39.280Z,30.10
2019-01-12T09:55:09.833Z,26.77
2019-01-12T09:57:40.512Z,27.10
2019-01-12T10:00:19.824Z,28.77
2019-01-12T10:02:51.124Z,29.40
2019-01-12T10:05:21.549Z,28.57
2019-01-12T10:07:52.021Z,28.47
2019-01-12T10:10:25.924Z,27.07
2019-01-12T10:12:56.646Z,31.17
2019-01-12T10:15:27.094Z,30.67
2019-01-12T10:17:57.981Z,28.73
2019-01-12T10:20:30.457Z,29.30
2019-01-12T10:23:01.114Z,30.97
2019-01-12T10:25:33.257Z,31.53
2019-01-12T10:28:06.709Z,27.57
2019-01-12T10:30:37.053Z,28.27
2019-01-12T10:33:07.509Z,31.63
2019-01-12T10:35:39.827Z,28.87
2019-01-12T10:38:13.588Z,31.33
2019-01-12T10:40:43.986Z,27.93
2019-01-12T10:43:14.493Z,29.07
2019-01-12T10:45:44.881Z,27.13
2019-01-12T10:48:15.326Z,27.80
2019-01-12T10:50:46.027Z,30.10
2019-01-12T10:53:16.536Z,36.70
2019-01-12T10:55:47.130Z,31.80
2019-01-12T10:58:20.524Z,27.63
2019-01-12T11:00:50.921Z,30.40
2019-01-12T11:03:24.062Z,32.00
2019-01-12T11:05:59.513Z,25.60
2019-01-12T11:08:33.918Z,29.93
2019-01-12T11:11:04.383Z,29.53
2019-01-12T11:13:34.788Z,27.23
2019-01-12T11:16:06.899Z,27.33
2019-01-12T11:18:37.421Z,24.97
2019-01-12T11:21:07.851Z,30.27
2019-01-12T11:23:38.819Z,30.00
2019-01-12T11:26:09.559Z,29.47
2019-01-12T11:28:43.054Z,30.47
2019-01-12T11:31:19.627Z,28.67
2019-01-12T11:33:45.587Z,29.43
2019-01-12T11:36:16.072Z,32.00
2019-01-12T11:38:48.893Z,35.20
2019-01-12T11:41:19.332Z,29.20
2019-01-12T11:43:49.857Z,30.70
2019-01-12T11:46:20.501Z,35.57
2019-01-12T11:48:51.026Z,32.73
2019-01-12T11:51:21.719Z,28.27
2019-01-12T11:53:53.864Z,28.77
2019-01-12T11:56:24.611Z,37.03
2019-01-12T11:58:55.053Z,28.93
2019-01-12T12:01:26.484Z,31.03
2019-01-12T12:03:58.933Z,29.97
2019-01-12T12:06:29.493Z,26.53
2019-01-12T12:09:02.681Z,28.27
2019-01-12T12:11:33.157Z,28.13
2019-01-12T12:14:03.565Z,26.37
2019-01-12T12:16:34.236Z,24.90
2019-01-12T12:19:04.695Z,30.23
2019-01-12T12:21:37.583Z,30.83
2019-01-12T12:24:07.970Z,29.27
2019-01-12T12:26:38.435Z,25.73
2019-01-12T12:29:08.839Z,28.87
2019-01-12T12:31:39.193Z,24.47
2019-01-12T12:34:09.875Z,24.80
2019-01-12T12:36:40.458Z,22.80
2019-01-12T12:39:10.846Z,24.87
2019-01-12T12:41:45.268Z,22.47
2019-01-12T12:44:17.375Z,25.27
2019-01-12T12:46:50.691Z,20.37
2019-01-12T12:49:23.157Z,21.00
2019-01-12T12:51:53.953Z,21.23
2019-01-12T12:54:27.463Z,22.00
2019-01-12T12:56:57.880Z,29.53
2019-01-12T12:59:29.338Z,23.90
2019-01-12T13:02:00.492Z,22.33
2019-01-12T13:04:31.467Z,20.53
2019-01-12T13:07:02.703Z,20.70
2019-01-12T13:09:36.265Z,25.43
2019-01-12T13:12:07.521Z,23.63
2019-01-12T13:14:39.001Z,22.37
2019-01-12T13:17:15.680Z,19.57
2019-01-12T13:19:46.524Z,17.70
2019-01-12T13:22:18.198Z,21.67
2019-01-12T13:24:48.795Z,15.30
2019-01-12T13:27:19.620Z,19.57
2019-01-12T13:29:50.170Z,23.60
2019-01-12T13:32:20.734Z,19.63
2019-01-12T13:34:53.706Z,20.70
2019-01-12T13:37:24.240Z,15.93
2019-01-12T13:39:54.920Z,19.33
2019-01-12T13:42:26.818Z,18.80
2019-01-12T13:44:57.593Z,17.77
2019-01-12T13:47:29.440Z,17.07
2019-01-12T13:49:59.840Z,17.70
2019-01-12T13:52:30.609Z,17.83
2019-01-12T13:55:01.210Z,16.87
2019-01-12T13:57:34.489Z,16.10
2019-01-12T14:00:07.043Z,17.97
2019-01-12T14:02:38.418Z,14.60
2019-01-12T14:05:09.207Z,16.93
2019-01-12T14:07:39.652Z,14.23
2019-01-12T14:10:11.550Z,17.80
2019-01-12T14:12:42.074Z,16.87
2019-01-12T14:15:13.569Z,16.03
2019-01-12T14:17:44.092Z,20.73
2019-01-12T14:20:17.950Z,12.80
2019-01-12T14:22:48.339Z,13.87
2019-01-12T14:25:21.511Z,12.17
2019-01-12T14:27:54.828Z,12.43
2019-01-12T14:30:27.576Z,13.17
2019-01-12T14:32:58.049Z,13.13
2019-01-12T14:35:28.680Z,15.10
2019-01-12T14:37:59.815Z,12.87
2019-01-12T14:40:30.630Z,12.07
2019-01-12T14:43:01.085Z,12.27
2019-01-12T14:45:33.031Z,12.20
2019-01-12T14:48:03.428Z,10.03
2019-01-12T14:50:34.032Z,13.20
2019-01-12T14:53:05.245Z,12.47
2019-01-12T14:55:38.218Z,10.30
2019-01-12T14:58:11.812Z,9.40
2019-01-12T15:00:43.115Z,11.60
2019-01-12T15:03:13.793Z,10.63
2019-01-12T15:05:44.271Z,12.37
2019-01-12T15:08:14.674Z,12.03
2019-01-12T15:10:45.277Z,12.33
2019-01-12T15:13:15.911Z,11.57
2019-01-12T15:15:46.390Z,11.10
2019-01-12T15:18:16.817Z,12.23
2019-01-12T15:20:47.656Z,12.30
2019-01-12T15:23:20.964Z,11.20
2019-01-12T15:25:55.806Z,15.83
2019-01-12T15:28:26.302Z,18.03
2019-01-12T15:30:56.847Z,20.43
2019-01-12T15:33:28.346Z,21.50
2019-01-12T15:35:59.336Z,26.43
2019-01-12T15:38:30.830Z,22.83
2019-01-12T15:41:01.224Z,21.97
2019-01-12T15:43:31.658Z,21.87
2019-01-12T15:46:03.021Z,23.57
2019-01-12T15:48:33.407Z,25.87
2019-01-12T15:51:05.786Z,20.83
2019-01-12T15:53:36.275Z,22.30
2019-01-12T15:56:06.597Z,20.53
2019-01-12T15:58:37.049Z,21.90
2019-01-12T16:01:08.889Z,23.60
2019-01-12T16:03:39.391Z,20.97
2019-01-12T16:06:09.806Z,22.17
2019-01-12T16:08:40.264Z,22.73
2019-01-12T16:11:10.867Z,22.57
2019-01-12T16:13:41.498Z,19.73
2019-01-12T16:16:11.912Z,18.57
2019-01-12T16:18:43.464Z,24.27
2019-01-12T16:21:13.870Z,20.37
2019-01-12T16:23:45.087Z,21.17
2019-01-12T16:26:15.612Z,20.10
2019-01-12T16:28:46.186Z,18.67
2019-01-12T16:31:16.446Z,19.17
2019-01-12T16:33:47.369Z,18.70
2019-01-12T16:36:19.677Z,21.63
2019-01-12T16:38:54.456Z,19.17
2019-01-12T16:41:27.051Z,18.17
2019-01-12T16:43:57.509Z,16.70
2019-01-12T16:46:28.016Z,18.50
2019-01-12T16:48:58.489Z,18.27
2019-01-12T16:51:28.892Z,16.73
2019-01-12T16:53:59.370Z,15.77
2019-01-12T16:56:29.786Z,14.27
2019-01-12T16:59:00.307Z,15.93
2019-01-12T17:01:32.395Z,17.80
2019-01-12T17:04:02.893Z,13.17
2019-01-12T17:06:33.675Z,14.50
2019-01-12T17:09:05.867Z,13.07
2019-01-12T17:11:36.311Z,14.13
2019-01-12T17:14:06.855Z,15.57
2019-01-12T17:16:37.319Z,14.13
2019-01-12T17:19:08.054Z,15.23
2019-01-12T17:21:38.499Z,17.47
2019-01-12T17:24:09.334Z,20.17
2019-01-12T17:26:42.955Z,14.90
2019-01-12T17:29:17.737Z,18.23
2019-01-12T17:31:45.576Z,17.00
2019-01-12T17:34:19.350Z,18.00
2019-01-12T17:36:49.998Z,16.53
2019-01-12T17:39:20.410Z,18.20
2019-01-12T17:41:53.906Z,16.93
2019-01-12T17:44:24.641Z,16.13
2019-01-12T17:46:56.855Z,17.40
2019-01-12T17:49:27.921Z,15.67
2019-01-12T17:51:59.004Z,16.80
2019-01-12T17:54:29.558Z,14.07
2019-01-12T17:57:00.767Z,14.80
2019-01-12T17:59:31.448Z,16.60
2019-01-12T18:02:03.498Z,15.40
2019-01-12T18:04:38.023Z,15.17
2019-01-12T18:07:09.956Z,15.87
2019-01-12T18:09:40.923Z,12.43
2019-01-12T18:12:11.778Z,13.13
2019-01-12T18:14:42.263Z,13.30
2019-01-12T18:17:14.362Z,10.47
2019-01-12T18:19:44.861Z,9.93
2019-01-12T18:22:19.009Z,11.87
2019-01-12T18:24:52.380Z,9.70
2019-01-12T18:27:24.443Z,8.00
2019-01-12T18:29:57.278Z,8.23
2019-01-12T18:32:30.815Z,9.90
2019-01-12T18:35:01.729Z,8.50
2019-01-12T18:37:35.739Z,8.73
2019-01-12T18:40:17.982Z,8.33
2019-01-12T18:42:48.722Z,9.43
2019-01-12T18:45:20.491Z,10.27
2019-01-12T18:47:55.032Z,8.07
2019-01-12T18:50:27.306Z,6.23
2019-01-12T18:53:05.906Z,6.83
2019-01-12T18:55:36.970Z,8.73
2019-01-12T18:58:09.187Z,7.93
2019-01-12T19:00:39.923Z,7.23
2019-01-12T19:03:13.480Z,7.63
2019-01-12T19:05:48.507Z,7.60
2019-01-12T19:08:26.799Z,6.33
2019-01-12T19:11:03.167Z,8.97
2019-01-12T19:13:34.137Z,6.83
2019-01-12T19:16:05.844Z,11.00
2019-01-12T19:18:42.744Z,9.63
2019-01-12T19:21:13.141Z,8.00
2019-01-12T19:23:44.568Z,8.20
2019-01-12T19:26:16.204Z,8.87
2019-01-12T19:28:47.093Z,10.07
2019-01-12T19:31:19.047Z,8.43
2019-01-12T19:33:49.665Z,8.97
2019-01-12T19:36:21.124Z,11.40
2019-01-12T19:38:52.806Z,13.17
2019-01-12T19:41:23.509Z,15.20
2019-01-12T19:43:56.667Z,12.93
2019-01-12T19:46:30.142Z,11.53
2019-01-12T19:49:02.738Z,11.70
2019-01-12T19:51:34.102Z,11.13
2019-01-12T19:54:07.246Z,10.73
2019-01-12T19:56:38.946Z,9.80
2019-01-12T19:59:13.637Z,9.57
2019-01-12T20:01:41.493Z,8.80
2019-01-12T20:04:12.717Z,11.90
2019-01-12T20:06:43.121Z,12.53
2019-01-12T20:09:13.914Z,12.50
2019-01-12T20:11:44.663Z,10.00
2019-01-12T20:14:15.081Z,7.53
2019-01-12T20:16:45.468Z,10.60
2019-01-12T20:19:16.256Z,11.77
2019-01-12T20:21:49.262Z,11.60
2019-01-12T20:24:19.630Z,10.47
2019-01-12T20:26:54.080Z,11.17
2019-01-12T20:29:24.477Z,9.73
2019-01-12T20:32:32.444Z,10.80
2019-01-12T20:35:35.531Z,9.03
2019-01-12T20:38:42.980Z,12.47
2019-01-12T20:41:58.450Z,11.83
2019-01-12T20:44:59.468Z,13.33
2019-01-12T20:48:09.064Z,15.57
2019-01-12T20:51:39.439Z,13.03
2019-01-12T20:54:40.903Z,11.57
2019-01-12T20:57:40.535Z,15.70
2019-01-12T21:01:10.053Z,11.80
2019-01-12T21:04:12.825Z,11.53
2019-01-12T21:07:09.529Z,11.43
2019-01-12T21:10:26.534Z,14.70
2019-01-12T21:13:52.741Z,13.57
2019-01-12T21:16:32.754Z,15.70
2019-01-12T21:19:06.282Z,18.93
2019-01-12T21:21:39.545Z,13.90
2019-01-12T21:24:10.876Z,15.93
2019-01-12T21:26:41.301Z,15.47
2019-01-12T21:29:14.441Z,13.57
2019-01-12T21:31:48.298Z,15.57
2019-01-12T21:34:19.231Z,9.13
2019-01-12T21:36:50.736Z,12.17
2019-01-12T21:39:21.162Z,12.37
2019-01-12T21:41:52.025Z,9.27
2019-01-12T21:44:22.429Z,14.67
2019-01-12T21:46:52.856Z,10.73
2019-01-12T21:49:26.355Z,9.47
2019-01-12T21:51:57.054Z,8.73
2019-01-12T21:54:27.375Z,10.80
2019-01-12T21:57:00.553Z,10.17
2019-01-12T21:59:32.392Z,9.83
2019-01-12T22:02:04.508Z,9.47
2019-01-12T22:04:35.053Z,10.33
2019-01-12T22:07:06.124Z,8.20
2019-01-12T22:09:36.732Z,15.13
2019-01-12T22:12:08.247Z,12.83
2019-01-12T22:14:41.454Z,11.53
2019-01-12T22:17:13.001Z,16.70
2019-01-12T22:19:43.370Z,12.67
2019-01-12T22:22:16.861Z,19.70
2019-01-12T22:24:47.475Z,16.20
2019-01-12T22:27:17.875Z,13.20
2019-01-12T22:29:49.921Z,12.67
2019-01-12T22:32:22.321Z,12.93
2019-01-12T22:34:55.843Z,15.57
2019-01-12T22:37:27.212Z,12.93
2019-01-12T22:39:57.803Z,13.73
2019-01-12T22:42:28.308Z,14.07
2019-01-12T22:44:58.851Z,15.63
2019-01-12T22:47:29.435Z,14.50
2019-01-12T22:50:03.051Z,13.93
2019-01-12T22:52:37.551Z,16.10
2019-01-12T22:55:09.288Z,15.93
2019-01-12T22:57:39.664Z,14.67
2019-01-12T23:00:44.243Z,16.70
2019-01-12T23:03:14.692Z,22.30
2019-01-12T23:05:45.099Z,15.97
2019-01-12T23:08:18.688Z,14.70
2019-01-12T23:10:51.682Z,14.90
2019-01-12T23:13:22.730Z,12.33
2019-01-12T23:15:53.152Z,13.40
2019-01-12T23:18:23.527Z,17.93
2019-01-12T23:20:53.935Z,21.93
2019-01-12T23:23:24.282Z,16.07
2019-01-12T23:25:57.023Z,16.47
2019-01-12T23:28:27.354Z,16.70
2019-01-12T23:30:57.735Z,22.93
2019-01-12T23:33:28.222Z,15.10
2019-01-12T23:36:03.710Z,14.37
2019-01-12T23:38:34.055Z,20.03
2019-01-12T23:41:05.435Z,16.77
2019-01-12T23:43:36.643Z,18.97
2019-01-12T23:46:07.077Z,13.53
2019-01-12T23:48:39.040Z,17.87
2019-01-12T23:51:09.370Z,17.50
2019-01-12T23:53:40.093Z,15.87
2019-01-12T23:56:10.535Z,15.63
2019-01-12T23:58:40.905Z,18.00
